Time;durP1;ratioP1;P1;durP2;ratioP2;P2;SDS_P1;SDS_P2;PMS_P1;PMS_P2;Temp;Humidity;BMP_temperature;BMP_pressure;BME280_temperature;BME280_humidity;BME280_pressure;Samples;Min_cycle;Max_cycle;Signal;HPM_P1;HPM_P2
2022/05/03 00:00:01;;;;;;;23.07;21.37;;;13.00;99.90;;;;;;6214454;23;20484;-73
2022/05/03 00:02:36;;;;;;;24.13;22.43;;;13.00;99.90;;;;;;6214663;23;20397;-72
2022/05/03 00:05:07;;;;;;;24.43;22.50;;;12.90;99.90;;;;;;6214275;23;20392;-72
2022/05/03 00:07:39;;;;;;;24.97;22.73;;;12.90;99.90;;;;;;6214398;23;20393;-72
2022/05/03 00:10:08;;;;;;;23.50;21.90;;;12.90;99.90;;;;;;6213899;23;20464;-72
2022/05/03 00:12:38;;;;;;;23.60;21.57;;;12.90;99.90;;;;;;6214307;23;20448;-73
2022/05/03 00:15:07;;;;;;;24.40;22.67;;;12.90;99.90;;;;;;6213939;23;20413;-72
2022/05/03 00:17:34;;;;;;;23.47;21.67;;;12.90;99.90;;;;;;6212167;23;20412;-72
2022/05/03 00:20:03;;;;;;;24.33;22.63;;;12.90;99.90;;;;;;6214241;23;20487;-72
2022/05/03 00:22:32;;;;;;;25.23;22.93;;;12.60;99.90;;;;;;6214071;23;20458;-72
2022/05/03 00:24:59;;;;;;;23.27;21.47;;;12.60;99.90;;;;;;6214398;23;20409;-72
2022/05/03 00:27:26;;;;;;;24.83;22.83;;;12.70;99.90;;;;;;6214530;23;20779;-72
2022/05/03 00:29:54;;;;;;;26.60;24.50;;;12.70;99.90;;;;;;6214347;23;20396;-72
2022/05/03 00:32:23;;;;;;;25.90;23.80;;;12.60;99.90;;;;;;6213925;23;20404;-72
2022/05/03 00:34:50;;;;;;;25.47;23.57;;;12.50;99.90;;;;;;6214153;23;20416;-72
2022/05/03 00:37:18;;;;;;;26.43;24.07;;;12.60;99.90;;;;;;6213905;23;20409;-72
2022/05/03 00:39:45;;;;;;;24.97;22.97;;;12.60;99.90;;;;;;6214177;23;20440;-72
2022/05/03 00:42:18;;;;;;;25.00;23.00;;;12.60;99.90;;;;;;6214010;23;20405;-72
2022/05/03 00:45:03;;;;;;;26.60;24.57;;;12.60;99.90;;;;;;6214114;23;20400;-71
2022/05/03 00:47:39;;;;;;;26.60;24.50;;;12.50;99.90;;;;;;6214197;23;20397;-72
2022/05/03 00:50:07;;;;;;;27.70;25.50;;;12.30;99.90;;;;;;6213901;23;20388;-72
2022/05/03 00:52:45;;;;;;;25.87;24.17;;;12.30;99.90;;;;;;6213891;23;20498;-72
2022/05/03 00:55:35;;;;;;;26.50;24.20;;;12.20;99.90;;;;;;6213828;23;20891;-71
2022/05/03 00:58:13;;;;;;;30.90;27.87;;;12.10;99.90;;;;;;6213535;23;20397;-72
2022/05/03 01:00:47;;;;;;;27.30;25.47;;;12.00;99.90;;;;;;6214416;23;20429;-72
2022/05/03 01:03:21;;;;;;;28.83;26.77;;;11.90;99.90;;;;;;6213620;23;20443;-72
2022/05/03 01:06:01;;;;;;;27.20;25.10;;;11.90;99.90;;;;;;6213597;23;20471;-72
2022/05/03 01:08:46;;;;;;;28.80;26.73;;;11.90;99.90;;;;;;6213878;23;20436;-72
2022/05/03 01:11:26;;;;;;;29.37;27.20;;;11.80;99.90;;;;;;6213494;23;20498;-72
2022/05/03 01:14:01;;;;;;;29.97;27.70;;;11.70;99.90;;;;;;6213485;23;20396;-73
2022/05/03 01:16:33;;;;;;;30.27;27.93;;;11.50;99.90;;;;;;6214124;23;20397;-73
2022/05/03 01:19:14;;;;;;;30.87;28.40;;;11.40;99.90;;;;;;6213392;23;20942;-71
2022/05/03 01:21:55;;;;;;;33.10;30.60;;;11.30;99.90;;;;;;6213437;23;20443;-71
2022/05/03 01:24:38;;;;;;;31.10;28.80;;;11.10;99.90;;;;;;6213463;23;20395;-72
2022/05/03 01:27:37;;;;;;;32.40;29.20;;;11.10;99.90;;;;;;6213555;23;20475;-72
2022/05/03 01:30:06;;;;;;;27.83;26.00;;;11.10;99.90;;;;;;6213637;23;20462;-72
2022/05/03 01:32:34;;;;;;;28.57;26.43;;;11.00;99.90;;;;;;6213420;23;20400;-72
2022/05/03 01:35:05;;;;;;;30.07;27.33;;;11.00;99.90;;;;;;6213270;23;20407;-72
2022/05/03 01:37:42;;;;;;;32.17;29.70;;;10.90;99.90;;;;;;6213565;23;20384;-72
2022/05/03 01:40:13;;;;;;;32.43;29.80;;;10.80;99.90;;;;;;6213623;23;20436;-72
2022/05/03 01:42:59;;;;;;;31.50;29.00;;;10.70;99.90;;;;;;6213361;23;20389;-72
2022/05/03 01:45:32;;;;;;;33.47;30.47;;;10.60;99.90;;;;;;6213653;23;20397;-72
2022/05/03 01:48:16;;;;;;;34.23;31.10;;;10.50;99.90;;;;;;6213329;23;20393;-72
2022/05/03 01:50:49;;;;;;;33.53;30.93;;;10.40;99.90;;;;;;6213459;23;20432;-73
2022/05/03 01:53:19;;;;;;;32.03;29.67;;;10.30;99.90;;;;;;6213517;23;20392;-73
2022/05/03 01:56:06;;;;;;;33.23;30.23;;;10.20;99.90;;;;;;6213099;23;20903;-72
2022/05/03 01:58:41;;;;;;;35.37;32.53;;;10.20;99.90;;;;;;6212753;23;20430;-72
2022/05/03 02:01:18;;;;;;;35.23;32.23;;;10.10;99.90;;;;;;6212982;23;20928;-72
2022/05/03 02:03:50;;;;;;;34.63;31.60;;;10.10;99.90;;;;;;6213269;23;20405;-73
2022/05/03 02:06:22;;;;;;;32.13;29.50;;;10.10;99.90;;;;;;6213108;23;20754;-73
2022/05/03 02:08:56;;;;;;;34.73;31.67;;;10.20;99.90;;;;;;6212670;23;20424;-72
2022/05/03 02:11:41;;;;;;;35.20;32.00;;;10.20;99.90;;;;;;6212812;23;20520;-73
2022/05/03 02:17:13;;;;;;;31.67;29.03;;;10.20;99.90;;;;;;6213007;23;20417;-72
2022/05/03 02:19:48;;;;;;;33.93;31.07;;;10.30;99.90;;;;;;6212784;23;20428;-72
2022/05/03 02:22:30;;;;;;;34.57;31.27;;;10.20;99.90;;;;;;6213195;23;20392;-72
2022/05/03 02:25:03;;;;;;;33.20;30.30;;;10.20;99.90;;;;;;6212974;23;20393;-73
2022/05/03 02:27:32;;;;;;;32.17;29.37;;;10.10;99.90;;;;;;6213055;23;20863;-72
2022/05/03 02:30:01;;;;;;;32.67;30.03;;;10.10;99.90;;;;;;6213076;23;20463;-72
2022/05/03 02:32:34;;;;;;;32.40;29.40;;;10.10;99.90;;;;;;6213442;23;20412;-73
2022/05/03 02:35:04;;;;;;;36.00;32.80;;;10.20;99.90;;;;;;6213005;23;20485;-73
2022/05/03 02:37:37;;;;;;;35.87;32.37;;;10.10;99.90;;;;;;6212957;23;20413;-73
2022/05/03 02:40:08;;;;;;;36.97;33.77;;;10.10;99.90;;;;;;6212947;23;20537;-73
2022/05/03 02:42:35;;;;;;;36.23;32.90;;;10.10;99.90;;;;;;6213119;23;20429;-73
2022/05/03 02:45:04;;;;;;;36.00;32.97;;;10.10;99.90;;;;;;6212473;23;20896;-73
2022/05/03 02:47:40;;;;;;;37.67;34.37;;;10.10;99.90;;;;;;6213097;23;20463;-74
2022/05/03 02:50:10;;;;;;;36.97;33.87;;;10.10;99.90;;;;;;6213003;23;20388;-73
2022/05/03 02:52:58;;;;;;;33.93;31.13;;;10.10;99.90;;;;;;6213185;23;20414;-73
2022/05/03 02:55:36;;;;;;;35.10;32.20;;;10.00;99.90;;;;;;6213171;23;20496;-73
2022/05/03 02:58:06;;;;;;;37.87;34.77;;;10.00;99.90;;;;;;6212725;23;21135;-72
2022/05/03 03:04:01;;;;;;;37.90;34.50;;;10.00;99.90;;;;;;6212720;23;20388;-72
2022/05/03 03:06:32;;;;;;;39.63;35.87;;;10.00;99.90;;;;;;6213035;23;20389;-73
2022/05/03 03:09:01;;;;;;;42.07;34.30;;;10.10;99.90;;;;;;6212907;23;20421;-72
2022/05/03 03:11:36;;;;;;;37.53;34.07;;;10.00;99.90;;;;;;6212501;23;20467;-73
2022/05/03 03:14:10;;;;;;;37.83;34.00;;;10.00;99.90;;;;;;6213016;23;20394;-72
2022/05/03 03:16:53;;;;;;;36.10;33.00;;;10.00;99.90;;;;;;6212913;23;20389;-73
2022/05/03 03:19:34;;;;;;;35.47;32.47;;;10.10;99.90;;;;;;6212631;23;20455;-72
2022/05/03 03:22:02;;;;;;;38.63;34.80;;;10.10;99.90;;;;;;6212531;23;20508;-72
2022/05/03 03:24:29;;;;;;;37.60;34.30;;;10.10;99.90;;;;;;6212605;23;20508;-71
2022/05/03 03:27:00;;;;;;;38.33;35.33;;;10.00;99.90;;;;;;6213055;23;20441;-71
2022/05/03 03:29:28;;;;;;;35.07;31.87;;;10.10;99.90;;;;;;6212865;23;20899;-71
2022/05/03 03:31:58;;;;;;;37.27;34.17;;;10.00;99.90;;;;;;6212524;23;20476;-73
2022/05/03 03:34:28;;;;;;;33.80;31.20;;;10.00;99.90;;;;;;6212774;23;20396;-72
2022/05/03 03:37:01;;;;;;;33.80;30.60;;;10.00;99.90;;;;;;6213582;23;20437;-72
2022/05/03 03:39:28;;;;;;;34.30;30.97;;;10.00;99.90;;;;;;6214976;23;20397;-71
2022/05/03 03:41:55;;;;;;;34.13;31.33;;;10.00;99.90;;;;;;6214509;23;20408;-71
2022/05/03 03:44:22;;;;;;;35.53;32.40;;;10.00;99.90;;;;;;6214376;23;20479;-72
2022/05/03 03:46:49;;;;;;;35.93;32.80;;;10.00;99.90;;;;;;6214453;23;20434;-72
2022/05/03 03:49:15;;;;;;;35.77;32.87;;;9.90;99.90;;;;;;6214231;23;20454;-72
2022/05/03 03:51:45;;;;;;;33.50;30.87;;;9.90;99.90;;;;;;6214148;23;20885;-73
2022/05/03 03:54:12;;;;;;;35.57;32.73;;;9.90;99.90;;;;;;6214318;23;20904;-73
2022/05/03 03:56:39;;;;;;;34.77;31.57;;;9.90;99.90;;;;;;6214235;23;20920;-73
2022/05/03 03:59:06;;;;;;;38.70;35.30;;;9.90;99.90;;;;;;6214047;23;20408;-72
2022/05/03 04:01:33;;;;;;;35.80;32.90;;;9.80;99.90;;;;;;6214055;23;20440;-72
2022/05/03 04:04:01;;;;;;;37.80;34.50;;;9.80;99.90;;;;;;6214461;23;20405;-72
2022/05/03 04:06:27;;;;;;;38.60;34.93;;;9.80;99.90;;;;;;6214626;23;20469;-73
2022/05/03 04:08:55;;;;;;;37.33;33.70;;;9.90;99.90;;;;;;6214501;23;20436;-73
2022/05/03 04:11:22;;;;;;;34.70;31.60;;;9.90;99.90;;;;;;6213940;23;20428;-73
2022/05/03 04:13:49;;;;;;;36.47;33.43;;;9.90;99.90;;;;;;6213529;23;20408;-73
2022/05/03 04:16:15;;;;;;;36.57;33.30;;;9.90;99.90;;;;;;6214229;23;20436;-73
2022/05/03 04:18:48;;;;;;;34.57;31.67;;;9.90;99.90;;;;;;6214514;23;20715;-74
2022/05/03 04:21:15;;;;;;;35.63;32.17;;;9.90;99.90;;;;;;6212001;23;20449;-73
2022/05/03 04:23:42;;;;;;;34.57;31.80;;;9.90;99.90;;;;;;6214154;23;20409;-73
2022/05/03 04:26:10;;;;;;;36.80;33.10;;;9.90;99.90;;;;;;6214506;23;20405;-73
2022/05/03 04:28:37;;;;;;;34.40;31.30;;;9.90;99.90;;;;;;6214105;23;20413;-73
2022/05/03 04:31:04;;;;;;;32.40;29.90;;;9.90;99.90;;;;;;6214213;23;20466;-72
2022/05/03 04:33:31;;;;;;;33.93;30.93;;;9.90;99.90;;;;;;6214120;23;20413;-73
2022/05/03 04:35:57;;;;;;;32.87;30.27;;;9.90;99.90;;;;;;6214026;23;20470;-73
2022/05/03 04:38:24;;;;;;;33.97;31.17;;;10.00;99.90;;;;;;6214278;23;20455;-73
2022/05/03 04:40:57;;;;;;;33.20;30.10;;;10.00;99.90;;;;;;6213939;23;20813;-72
2022/05/03 04:43:26;;;;;;;33.40;30.50;;;10.00;99.90;;;;;;6214239;23;20443;-73
2022/05/03 04:45:53;;;;;;;37.97;34.70;;;10.00;99.90;;;;;;6214336;23;20432;-73
2022/05/03 04:48:20;;;;;;;36.87;33.90;;;10.10;99.90;;;;;;6213452;23;20712;-73
2022/05/03 04:50:47;;;;;;;36.40;33.23;;;10.10;99.90;;;;;;6213728;23;20405;-73
2022/05/03 04:53:14;;;;;;;36.00;33.10;;;10.30;99.90;;;;;;6213817;23;20420;-72
2022/05/03 04:55:41;;;;;;;34.03;31.27;;;10.60;99.90;;;;;;6214117;23;20428;-73
2022/05/03 04:58:08;;;;;;;34.27;31.77;;;10.80;99.90;;;;;;6213571;23;20982;-72
2022/05/03 05:00:36;;;;;;;33.50;30.17;;;11.00;99.90;;;;;;6213267;23;21055;-72
2022/05/03 05:03:03;;;;;;;30.67;28.27;;;11.30;99.90;;;;;;6213147;23;20444;-72
2022/05/03 05:05:30;;;;;;;31.47;28.97;;;11.50;99.90;;;;;;6213765;23;20785;-72
2022/05/03 05:07:56;;;;;;;30.80;28.17;;;11.70;99.90;;;;;;6213640;23;20439;-72
2022/05/03 05:10:26;;;;;;;28.53;26.37;;;11.90;99.90;;;;;;6213519;23;20436;-71
2022/05/03 05:12:54;;;;;;;28.00;25.80;;;12.00;99.90;;;;;;6213537;23;20885;-72
2022/05/03 05:15:21;;;;;;;29.00;26.53;;;12.20;99.90;;;;;;6213587;23;20423;-73
2022/05/03 05:17:49;;;;;;;28.47;25.87;;;12.40;99.90;;;;;;6213121;23;20952;-73
2022/05/03 05:20:16;;;;;;;28.17;25.97;;;12.70;99.90;;;;;;6213397;23;20454;-74
2022/05/03 05:22:43;;;;;;;28.37;26.17;;;13.00;99.90;;;;;;6213751;23;20411;-74
2022/05/03 05:25:10;;;;;;;25.70;23.70;;;13.20;99.90;;;;;;6213569;23;20431;-73
2022/05/03 05:27:37;;;;;;;29.07;26.80;;;13.50;99.90;;;;;;6213498;23;20412;-73
2022/05/03 05:30:04;;;;;;;30.47;27.83;;;13.60;99.90;;;;;;6213508;23;20477;-73
2022/05/03 05:32:30;;;;;;;28.70;26.57;;;13.70;99.90;;;;;;6213423;23;20416;-74
2022/05/03 05:34:58;;;;;;;25.53;23.83;;;13.70;99.90;;;;;;6213780;23;20408;-74
2022/05/03 05:37:25;;;;;;;27.13;25.03;;;13.60;99.90;;;;;;6213762;23;20431;-73
2022/05/03 05:39:52;;;;;;;26.20;24.40;;;13.70;99.90;;;;;;6213208;23;20409;-73
2022/05/03 05:42:18;;;;;;;26.80;24.80;;;13.80;99.90;;;;;;6213194;23;20444;-72
2022/05/03 05:44:45;;;;;;;25.77;24.20;;;14.00;99.90;;;;;;6213439;23;20409;-73
2022/05/03 05:47:12;;;;;;;25.80;23.90;;;14.00;99.90;;;;;;6213664;23;20419;-73
2022/05/03 05:49:38;;;;;;;27.10;24.83;;;14.30;99.90;;;;;;6213342;23;20412;-74
2022/05/03 05:54:51;;;;;;;24.43;22.83;;;14.70;99.90;;;;;;6213159;23;20923;-73
2022/05/03 05:57:18;;;;;;;26.03;24.00;;;14.90;99.90;;;;;;6213120;23;20408;-73
2022/05/03 05:59:44;;;;;;;23.90;22.30;;;15.00;99.90;;;;;;6213044;23;20896;-74
2022/05/03 06:02:11;;;;;;;24.20;22.50;;;14.90;99.90;;;;;;6212897;23;20444;-73
2022/05/03 06:04:38;;;;;;;22.83;21.33;;;15.10;99.90;;;;;;6213181;23;20409;-73
2022/05/03 06:07:06;;;;;;;24.73;23.10;;;15.00;99.90;;;;;;6213241;23;20482;-73
2022/05/03 06:09:34;;;;;;;26.60;24.43;;;15.20;99.90;;;;;;6212678;23;20487;-73
2022/05/03 06:12:01;;;;;;;26.13;23.90;;;15.10;99.90;;;;;;6210877;23;20425;-72
2022/05/03 06:14:28;;;;;;;24.47;22.73;;;15.30;99.90;;;;;;6211724;23;20741;-72
2022/05/03 06:16:56;;;;;;;25.00;22.77;;;15.70;99.90;;;;;;6211700;23;20900;-73
2022/05/03 06:19:23;;;;;;;24.80;23.00;;;16.10;99.90;;;;;;6211402;23;20413;-74
2022/05/03 06:21:50;;;;;;;26.20;24.40;;;16.40;99.90;;;;;;6211879;23;20441;-72
2022/05/03 06:24:18;;;;;;;25.93;24.20;;;16.30;99.90;;;;;;6211447;23;20901;-74
2022/05/03 06:26:45;;;;;;;26.13;24.30;;;16.10;99.90;;;;;;6211815;23;20416;-72
2022/05/03 06:29:12;;;;;;;23.77;22.20;;;16.30;99.90;;;;;;6211868;23;20880;-73
2022/05/03 06:31:39;;;;;;;25.13;23.53;;;16.60;99.90;;;;;;6211565;23;20405;-72
2022/05/03 06:34:06;;;;;;;24.47;22.53;;;16.80;99.90;;;;;;6211778;23;20451;-71
2022/05/03 06:36:35;;;;;;;23.30;21.80;;;16.80;99.90;;;;;;6211223;23;20412;-74
2022/05/03 06:39:01;;;;;;;24.20;22.60;;;16.90;99.90;;;;;;6211485;23;20412;-73
2022/05/03 06:41:29;;;;;;;23.20;21.57;;;17.00;99.90;;;;;;6211507;23;20444;-73
2022/05/03 06:43:58;;;;;;;23.20;21.40;;;17.10;99.90;;;;;;6211856;23;20408;-73
2022/05/03 06:46:25;;;;;;;22.93;21.33;;;17.00;99.90;;;;;;6211936;23;20720;-73
2022/05/03 06:48:51;;;;;;;21.73;20.20;;;17.20;99.90;;;;;;6211227;23;20416;-72
2022/05/03 06:51:19;;;;;;;24.17;22.40;;;17.70;99.90;;;;;;6211652;23;20787;-75
2022/05/03 06:53:45;;;;;;;22.50;20.90;;;18.00;99.90;;;;;;6211577;23;20409;-74
2022/05/03 06:56:12;;;;;;;22.70;21.17;;;18.60;99.90;;;;;;6208806;23;20452;-74
2022/05/03 06:58:40;;;;;;;22.23;20.93;;;19.00;99.90;;;;;;6208143;23;21080;-74
2022/05/03 07:01:08;;;;;;;24.23;22.43;;;19.10;99.90;;;;;;6210267;23;20440;-73
2022/05/03 07:03:35;;;;;;;24.00;22.40;;;19.40;99.90;;;;;;6210912;23;20420;-75
2022/05/03 07:06:02;;;;;;;23.80;22.13;;;19.30;99.90;;;;;;6211366;23;20416;-73
2022/05/03 07:08:29;;;;;;;24.13;22.23;;;19.50;99.90;;;;;;6211322;23;20487;-74
2022/05/03 07:10:56;;;;;;;21.67;20.37;;;19.70;99.90;;;;;;6168403;23;1019461;-74
2022/05/03 07:13:24;;;;;;;22.17;20.63;;;19.70;99.70;;;;;;6214256;23;20184;-74
2022/05/03 07:15:53;;;;;;;23.30;21.80;;;20.00;99.60;;;;;;6212917;23;20908;-74
2022/05/03 07:23:49;;;;;;;22.27;20.70;;;20.30;98.20;;;;;;6213652;23;20597;-75
2022/05/03 07:26:16;;;;;;;22.60;21.27;;;20.80;97.30;;;;;;6213878;23;20737;-75
2022/05/03 07:28:43;;;;;;;24.00;22.40;;;20.90;96.90;;;;;;6214649;23;20515;-74
2022/05/03 07:31:11;;;;;;;24.33;22.57;;;21.20;96.80;;;;;;6212600;23;20404;-75
2022/05/03 07:33:38;;;;;;;23.23;21.73;;;21.60;96.50;;;;;;6214478;23;20417;-75
2022/05/03 07:36:05;;;;;;;23.27;21.57;;;22.20;95.00;;;;;;6214340;23;20416;-75
2022/05/03 07:38:32;;;;;;;22.40;21.00;;;22.20;94.00;;;;;;6214131;23;20463;-75
2022/05/03 07:40:59;;;;;;;21.23;19.80;;;22.10;94.40;;;;;;6212551;23;20807;-74
2022/05/03 07:43:25;;;;;;;23.47;22.00;;;22.10;94.20;;;;;;6214448;23;20983;-73
2022/05/03 07:45:52;;;;;;;22.93;21.00;;;22.50;93.00;;;;;;6214415;23;20405;-74
2022/05/03 07:48:21;;;;;;;23.63;22.20;;;22.60;92.30;;;;;;6214367;23;20417;-74
2022/05/03 07:50:48;;;;;;;23.30;21.57;;;22.90;92.10;;;;;;6213882;23;21012;-75
2022/05/03 07:53:15;;;;;;;25.37;23.57;;;22.80;91.60;;;;;;6214252;23;20416;-74
2022/05/03 07:55:44;;;;;;;25.10;22.87;;;22.00;92.60;;;;;;6214357;23;20408;-75
2022/05/03 07:58:11;;;;;;;21.47;20.17;;;21.10;93.90;;;;;;6214161;23;20523;-75
2022/05/03 08:00:39;;;;;;;22.80;21.47;;;21.40;93.80;;;;;;6214139;23;20478;-74
2022/05/03 08:03:06;;;;;;;20.73;19.23;;;21.40;93.40;;;;;;6213543;23;20396;-75
2022/05/03 08:05:34;;;;;;;20.27;19.13;;;21.30;93.70;;;;;;6213000;23;20988;-75
2022/05/03 08:08:01;;;;;;;19.73;18.43;;;21.80;92.40;;;;;;6213426;23;20413;-74
2022/05/03 08:10:28;;;;;;;20.33;19.03;;;22.30;92.30;;;;;;6213538;23;20436;-74
2022/05/03 08:12:54;;;;;;;19.73;18.57;;;22.80;90.60;;;;;;6213695;23;20400;-75
2022/05/03 08:15:23;;;;;;;21.57;20.10;;;23.50;90.40;;;;;;6213506;23;20786;-74
2022/05/03 08:17:50;;;;;;;20.77;19.60;;;24.40;87.50;;;;;;6212592;23;20433;-75
2022/05/03 08:20:17;;;;;;;22.77;21.10;;;25.30;85.60;;;;;;6213523;23;20479;-75
2022/05/03 08:22:45;;;;;;;23.63;22.27;;;26.00;82.10;;;;;;6213534;23;20444;-74
2022/05/03 08:25:12;;;;;;;22.30;21.10;;;26.00;78.90;;;;;;6213760;23;20416;-74
2022/05/03 08:27:41;;;;;;;22.83;21.30;;;25.80;79.40;;;;;;6213187;23;20743;-75
2022/05/03 08:30:09;;;;;;;22.07;20.47;;;25.60;79.80;;;;;;6213631;23;20409;-75
2022/05/03 08:32:36;;;;;;;21.90;20.50;;;24.90;81.70;;;;;;6213580;23;20405;-76
2022/05/03 08:35:03;;;;;;;22.87;21.17;;;24.80;81.00;;;;;;6213349;23;20756;-74
2022/05/03 08:43:04;;;;;;;22.37;20.90;;;26.00;76.80;;;;;;6213060;23;20471;-74
2022/05/03 08:45:32;;;;;;;21.93;20.53;;;25.80;76.70;;;;;;6213035;23;20417;-74
2022/05/03 08:48:01;;;;;;;22.40;21.10;;;25.70;77.60;;;;;;6213165;23;20412;-76
2022/05/03 08:50:29;;;;;;;23.10;21.53;;;26.00;76.60;;;;;;6213390;23;20815;-74
2022/05/03 08:53:01;;;;;;;21.10;19.80;;;25.50;76.80;;;;;;6213582;23;20440;-73
2022/05/03 08:55:29;;;;;;;22.07;20.57;;;24.60;79.30;;;;;;6213604;23;20389;-74
2022/05/03 08:57:56;;;;;;;22.60;20.93;;;24.70;79.30;;;;;;6213444;23;20408;-73
2022/05/03 09:00:23;;;;;;;20.87;19.63;;;24.60;80.10;;;;;;6213897;23;20420;-74
2022/05/03 09:02:52;;;;;;;21.93;20.53;;;24.30;80.50;;;;;;6212995;23;20536;-74
2022/05/03 09:05:20;;;;;;;21.30;20.17;;;24.00;81.60;;;;;;6212952;23;20432;-74
2022/05/03 09:07:49;;;;;;;21.20;19.50;;;23.90;81.50;;;;;;6212976;23;20412;-73
2022/05/03 09:10:18;;;;;;;21.97;20.33;;;23.80;84.00;;;;;;6212564;23;20472;-73
2022/05/03 09:12:47;;;;;;;21.17;19.87;;;23.70;82.50;;;;;;6212907;23;20405;-73
2022/05/03 09:15:14;;;;;;;23.20;20.97;;;24.00;82.30;;;;;;6213558;23;20409;-74
2022/05/03 09:17:43;;;;;;;20.60;19.20;;;23.40;82.60;;;;;;6213000;23;20931;-74
2022/05/03 09:25:53;;;;;;;20.60;19.30;;;23.90;82.90;;;;;;6217853;23;20373;-73
2022/05/03 09:28:23;;;;;;;21.57;19.97;;;23.60;82.20;;;;;;6214260;23;20412;-74
2022/05/03 09:30:52;;;;;;;19.40;18.00;;;23.70;82.30;;;;;;6212507;23;20416;-74
2022/05/03 09:33:20;;;;;;;20.67;19.37;;;24.40;82.00;;;;;;6212686;23;20520;-74
2022/05/03 09:35:48;;;;;;;20.23;18.67;;;25.40;79.90;;;;;;6212281;23;20632;-74
2022/05/03 09:38:14;;;;;;;18.03;16.90;;;25.90;78.00;;;;;;6212762;23;20405;-74
2022/05/03 09:40:44;;;;;;;18.27;16.90;;;26.70;75.30;;;;;;6213152;23;20478;-75
2022/05/03 09:43:11;;;;;;;19.10;17.80;;;26.80;74.10;;;;;;6212833;23;20470;-75
2022/05/03 09:45:39;;;;;;;19.10;18.00;;;27.60;71.80;;;;;;6211820;23;20452;-75
2022/05/03 09:48:07;;;;;;;19.03;17.67;;;28.40;69.50;;;;;;6211875;23;20905;-74
2022/05/03 09:50:39;;;;;;;16.70;16.00;;;28.90;65.30;;;;;;6212428;23;20435;-75
2022/05/03 09:53:11;;;;;;;16.43;15.63;;;29.30;63.30;;;;;;6209827;23;20455;-74
2022/05/03 09:55:40;;;;;;;16.87;16.07;;;28.60;63.90;;;;;;6210084;23;20753;-75
2022/05/03 09:58:09;;;;;;;16.77;15.67;;;28.60;64.30;;;;;;6211438;23;20893;-74
2022/05/03 10:00:38;;;;;;;15.80;15.10;;;29.30;63.00;;;;;;6211022;23;20416;-74
2022/05/03 10:03:09;;;;;;;15.73;15.03;;;29.20;60.70;;;;;;6210055;23;20444;-74
2022/05/03 10:05:37;;;;;;;15.30;14.70;;;29.10;60.00;;;;;;6210609;23;20427;-73
2022/05/03 10:08:04;;;;;;;15.33;14.70;;;29.50;59.20;;;;;;6210970;23;20417;-74
2022/05/03 10:10:31;;;;;;;16.00;15.10;;;29.00;60.00;;;;;;6211367;23;20441;-74
2022/05/03 10:12:59;;;;;;;15.80;15.00;;;29.10;59.00;;;;;;6211815;23;20491;-73
2022/05/03 10:21:04;;;;;;;15.20;14.50;;;28.50;59.10;;;;;;6211425;23;20385;-74
2022/05/03 10:23:32;;;;;;;14.93;14.33;;;28.80;59.30;;;;;;6211454;23;20476;-73
2022/05/03 10:26:01;;;;;;;15.70;14.80;;;28.30;58.20;;;;;;6211875;23;20409;-74
2022/05/03 10:29:04;;;;;;;15.80;15.10;;;28.30;58.70;;;;;;6212403;23;20463;-75
2022/05/03 10:31:51;;;;;;;15.90;15.20;;;29.00;57.20;;;;;;6212074;23;20389;-74
2022/05/03 10:34:42;;;;;;;16.40;15.70;;;29.40;57.00;;;;;;6211709;23;20401;-73
2022/05/03 10:37:10;;;;;;;16.10;15.37;;;29.50;56.80;;;;;;6212247;23;20758;-74
2022/05/03 10:39:46;;;;;;;16.20;15.50;;;30.40;55.50;;;;;;6211890;23;20499;-74
2022/05/03 10:42:14;;;;;;;16.30;15.50;;;30.40;55.00;;;;;;6212023;23;20486;-73
2022/05/03 10:44:46;;;;;;;15.63;14.73;;;30.70;55.40;;;;;;6212235;23;20409;-74
2022/05/03 10:47:20;;;;;;;16.30;15.60;;;30.70;55.60;;;;;;6211617;23;20428;-74
2022/05/03 10:50:21;;;;;;;16.13;15.37;;;31.10;54.40;;;;;;6211964;23;20429;-74
2022/05/03 10:53:22;;;;;;;15.57;14.87;;;29.60;56.00;;;;;;6211861;23;20411;-72
2022/05/03 10:56:19;;;;;;;17.50;16.50;;;29.30;56.00;;;;;;6211743;23;20396;-74
2022/05/03 10:59:02;;;;;;;17.20;16.40;;;30.20;54.50;;;;;;6207213;23;20461;-73
2022/05/03 11:01:28;;;;;;;16.67;15.87;;;30.60;54.10;;;;;;6203345;23;20451;-72
2022/05/03 11:04:11;;;;;;;16.70;16.00;;;31.30;52.10;;;;;;6211429;23;20462;-74
2022/05/03 11:06:42;;;;;;;17.10;16.23;;;31.10;51.10;;;;;;6205797;23;20471;-74
2022/05/03 11:09:10;;;;;;;16.50;15.73;;;30.10;52.50;;;;;;6211259;23;20416;-74
2022/05/03 11:11:57;;;;;;;16.90;16.00;;;30.00;53.50;;;;;;6210894;23;20429;-75
2022/05/03 11:14:50;;;;;;;16.80;16.00;;;30.90;52.10;;;;;;6211165;23;20861;-72
2022/05/03 11:17:18;;;;;;;15.50;14.80;;;31.30;51.20;;;;;;6210720;23;20412;-73
2022/05/03 11:19:55;;;;;;;16.80;16.00;;;32.00;50.20;;;;;;6211180;23;20404;-73
2022/05/03 11:22:24;;;;;;;15.63;15.03;;;31.90;47.50;;;;;;6211511;23;20436;-73
2022/05/03 11:24:52;;;;;;;15.60;15.00;;;31.80;47.50;;;;;;6211803;23;20419;-73
2022/05/03 11:27:20;;;;;;;15.70;15.10;;;31.80;47.80;;;;;;6211448;23;20504;-74
2022/05/03 11:29:48;;;;;;;16.90;16.20;;;31.40;47.90;;;;;;6211695;23;20408;-73
2022/05/03 11:32:16;;;;;;;17.00;16.27;;;32.00;48.80;;;;;;6211673;23;20451;-73
2022/05/03 11:34:44;;;;;;;17.23;16.50;;;32.60;48.00;;;;;;6211916;23;20408;-74
2022/05/03 11:37:12;;;;;;;16.90;16.20;;;33.00;47.00;;;;;;6212095;23;20724;-74
2022/05/03 11:39:40;;;;;;;16.50;15.73;;;32.50;47.20;;;;;;6211418;23;20943;-74
2022/05/03 11:42:10;;;;;;;15.90;15.10;;;32.40;47.50;;;;;;6211675;23;20472;-74
2022/05/03 11:44:42;;;;;;;16.87;16.17;;;32.00;48.10;;;;;;6211650;23;20475;-74
2022/05/03 11:47:11;;;;;;;17.97;16.73;;;30.90;49.00;;;;;;6211779;23;20403;-74
2022/05/03 11:49:38;;;;;;;17.67;16.87;;;29.00;50.10;;;;;;6211933;23;20440;-73
2022/05/03 11:57:40;;;;;;;17.40;16.50;;;28.40;54.80;;;;;;6211611;23;20376;-73
2022/05/03 12:00:12;;;;;;;16.87;15.93;;;28.90;54.40;;;;;;6213338;23;20398;-73
2022/05/03 12:02:42;;;;;;;15.80;15.10;;;30.10;52.80;;;;;;6213312;23;20491;-73
2022/05/03 12:05:17;;;;;;;17.07;16.23;;;31.60;50.70;;;;;;6213272;23;20420;-73
2022/05/03 12:07:46;;;;;;;17.00;16.20;;;32.60;47.30;;;;;;6213207;23;20397;-73
2022/05/03 12:10:20;;;;;;;16.23;15.53;;;31.90;47.10;;;;;;6212704;23;20448;-74
2022/05/03 12:12:47;;;;;;;18.00;16.83;;;31.20;49.70;;;;;;6213407;23;20476;-74
2022/05/03 12:15:19;;;;;;;16.97;16.10;;;30.60;50.80;;;;;;6213115;23;20463;-73
2022/05/03 12:17:58;;;;;;;17.80;16.70;;;28.80;54.50;;;;;;6212860;23;20393;-74
2022/05/03 12:20:25;;;;;;;17.20;16.17;;;27.60;56.70;;;;;;6213033;23;20803;-74
2022/05/03 12:23:12;;;;;;;15.00;14.20;;;26.60;57.90;;;;;;6212929;23;20502;-73
2022/05/03 12:25:41;;;;;;;14.30;13.60;;;25.50;60.50;;;;;;6213231;23;20748;-73
2022/05/03 12:28:08;;;;;;;15.60;14.53;;;24.20;62.40;;;;;;6213102;23;20405;-73
2022/05/03 12:30:35;;;;;;;14.13;13.43;;;22.80;65.70;;;;;;6213007;23;20416;-73
2022/05/03 12:33:04;;;;;;;13.33;12.63;;;21.90;68.20;;;;;;6213096;23;20400;-73
2022/05/03 12:35:33;;;;;;;13.67;13.10;;;21.30;72.50;;;;;;6212985;23;20471;-73
2022/05/03 12:38:11;;;;;;;15.27;14.47;;;21.00;75.60;;;;;;6213203;23;20730;-73
2022/05/03 12:40:48;;;;;;;13.70;12.77;;;20.80;78.00;;;;;;6213001;23;20448;-73
2022/05/03 12:43:21;;;;;;;14.13;13.40;;;20.70;80.00;;;;;;6210818;23;20445;-73
2022/05/03 12:46:02;;;;;;;13.93;13.33;;;20.60;81.70;;;;;;6212926;23;20420;-73
2022/05/03 12:48:30;;;;;;;14.17;13.37;;;20.50;83.70;;;;;;6213094;23;20389;-73
2022/05/03 12:50:57;;;;;;;15.90;14.90;;;20.50;83.90;;;;;;6213312;23;20420;-74
2022/05/03 12:53:25;;;;;;;17.20;14.93;;;20.00;90.40;;;;;;6213013;23;20415;-73
2022/05/03 12:55:54;;;;;;;16.97;15.97;;;19.40;95.10;;;;;;6212909;23;20405;-72
2022/05/03 12:58:22;;;;;;;16.00;15.07;;;18.80;99.90;;;;;;6212880;23;20467;-73
2022/05/03 13:00:50;;;;;;;15.33;14.13;;;18.20;99.90;;;;;;6212873;23;20463;-72
2022/05/03 13:03:17;;;;;;;15.67;14.67;;;17.70;99.90;;;;;;6212140;23;20876;-72
2022/05/03 13:05:44;;;;;;;16.10;15.10;;;17.10;99.90;;;;;;6213080;23;20748;-72
2022/05/03 13:08:11;;;;;;;15.70;14.53;;;16.90;99.90;;;;;;6213148;23;20492;-72
2022/05/03 13:10:39;;;;;;;17.40;16.30;;;16.90;99.90;;;;;;6212141;23;20511;-72
2022/05/03 13:13:07;;;;;;;15.57;14.47;;;16.70;99.90;;;;;;6212645;23;20401;-73
2022/05/03 13:15:34;;;;;;;17.43;16.23;;;16.60;99.90;;;;;;6212208;23;20937;-73
2022/05/03 13:18:01;;;;;;;16.73;15.80;;;16.40;99.90;;;;;;6212558;23;20779;-72
2022/05/03 13:20:28;;;;;;;16.50;15.40;;;16.40;99.90;;;;;;6212455;23;20901;-72